Current Conditions
Clear
Conditions




Pressure
1016.92 (mb) - 30.03 (inHG)
Visibility

6.2 (mimiles) - 10.0 (km)
   Temperature
13  °C
55°F
9  °C
Dewpoint
77  %
 Humidity
   Wind Speed
8  mph
7  kts
13  km/h
3.6  m/s
   Wind Direction
 290°
West North
West
   Airport Data
EGGD
Location Bristol Airport 15 mi (24.14 km)
Metar :EGGD 141950Z AUTO 29007KT 9999 NCD 13/09 Q1017
Tue 14th July 20:50 pm
   Raw Metar Info
Raw METAR is the most common format in the world for the transmission of observational weather data. It is highly standardized through the International Civil Aviation Organization (ICAO), which allows it to be understood throughout most of the world.
   API Info
Data Provided by
https://www.checkwx.com/weather/EGGD
   © Info
CSS/SVG/PHP scripts were developed by weather34.com for use in the weather34 template © 2015-2020

Guide Info provided by Metar-Wikipedia